createdAt,value
2017-07-17T00:00:58.743Z,0
2017-07-17T00:01:59.378Z,0
2017-07-17T00:02:59.668Z,0
2017-07-17T00:03:59.046Z,0
2017-07-17T00:04:59.604Z,0
2017-07-17T00:05:59.675Z,0
2017-07-17T00:06:59.364Z,0
2017-07-17T00:07:59.681Z,0
2017-07-17T00:08:59.657Z,0
2017-07-17T00:09:59.027Z,0
2017-07-17T00:10:59.615Z,0
2017-07-17T00:11:59.669Z,0
2017-07-17T00:12:59.633Z,0
2017-07-17T00:13:59.664Z,0
2017-07-17T00:14:59.649Z,0
2017-07-17T00:15:59.319Z,0
2017-07-17T00:16:59.617Z,0
2017-07-17T00:17:59.631Z,0
2017-07-17T00:18:59.631Z,0
2017-07-17T00:19:59.307Z,0
2017-07-17T00:20:59.887Z,0
2017-07-17T00:21:59.299Z,0
2017-07-17T00:22:58.988Z,0
2017-07-17T00:23:59.305Z,0
2017-07-17T00:24:59.596Z,0
2017-07-17T00:25:59.935Z,0
2017-07-17T00:26:59.287Z,0
2017-07-17T00:27:59.612Z,0
2017-07-17T00:28:59.592Z,0
2017-07-17T00:29:59.623Z,0
2017-07-17T00:30:59.850Z,0
2017-07-17T00:31:59.601Z,0
2017-07-17T00:32:59.572Z,0
2017-07-17T00:33:59.574Z,0
2017-07-17T00:34:59.581Z,0
2017-07-17T00:35:59.526Z,0
2017-07-17T00:36:59.289Z,0
2017-07-17T00:37:59.570Z,0
2017-07-17T00:38:59.594Z,0
2017-07-17T00:39:59.561Z,0
2017-07-17T00:40:59.510Z,0
2017-07-17T00:41:59.550Z,0
2017-07-17T00:42:59.571Z,0
2017-07-17T00:43:59.230Z,0
2017-07-17T00:44:59.260Z,0
2017-07-17T00:45:59.885Z,0
2017-07-17T00:46:59.242Z,0
2017-07-17T00:47:58.899Z,0
2017-07-17T00:48:59.238Z,0
2017-07-17T00:49:59.225Z,0
2017-07-17T00:50:59.470Z,0
2017-07-17T00:51:59.558Z,0
2017-07-17T00:52:59.228Z,0
2017-07-17T00:53:59.225Z,0
2017-07-17T00:54:59.211Z,0
2017-07-17T00:55:59.486Z,0
2017-07-17T00:56:59.215Z,0
2017-07-17T00:57:58.875Z,0
2017-07-17T00:58:59.539Z,0
2017-07-17T00:59:59.193Z,0
2017-07-17T01:00:59.768Z,0
2017-07-17T01:01:59.179Z,0
2017-07-17T01:02:59.188Z,0
2017-07-17T01:03:59.485Z,0
2017-07-17T01:04:59.207Z,0
2017-07-17T01:05:59.148Z,0
2017-07-17T01:06:59.496Z,0
2017-07-17T01:07:59.476Z,0
2017-07-17T01:08:59.150Z,0
2017-07-17T01:09:59.482Z,0
2017-07-17T01:10:59.432Z,0
2017-07-17T01:11:59.505Z,0
2017-07-17T01:12:59.465Z,0
2017-07-17T01:13:59.151Z,0
2017-07-17T01:14:59.157Z,0
2017-07-17T01:15:59.123Z,0
2017-07-17T01:16:59.146Z,0
2017-07-17T01:17:59.131Z,0
2017-07-17T01:18:59.143Z,0
2017-07-17T01:19:59.120Z,0
2017-07-17T01:20:59.807Z,0
2017-07-17T01:21:59.121Z,0
2017-07-17T01:22:58.801Z,0
2017-07-17T01:23:59.417Z,0
2017-07-17T01:24:59.414Z,0
2017-07-17T01:25:59.691Z,0
2017-07-17T01:26:59.437Z,0
2017-07-17T01:27:59.101Z,0
2017-07-17T01:28:59.434Z,0
2017-07-17T01:29:59.416Z,0
2017-07-17T01:30:59.725Z,0
2017-07-17T01:31:59.414Z,0
2017-07-17T01:32:59.434Z,0
2017-07-17T01:33:59.383Z,0
2017-07-17T01:34:59.393Z,0
2017-07-17T01:35:59.058Z,0
2017-07-17T01:36:59.350Z,0
2017-07-17T01:37:58.455Z,0
2017-07-17T01:38:58.747Z,0
2017-07-17T01:39:59.066Z,0
2017-07-17T01:40:59.408Z,0
2017-07-17T01:41:59.301Z,0
2017-07-17T01:42:59.368Z,0
2017-07-17T01:43:59.350Z,0
2017-07-17T01:44:59.066Z,0
2017-07-17T01:45:59.105Z,0
2017-07-17T01:46:59.619Z,0
2017-07-17T01:47:59.421Z,0
2017-07-17T01:48:59.380Z,0
2017-07-17T01:49:59.017Z,0
2017-07-17T01:50:59.377Z,0
2017-07-17T01:51:59.278Z,0
2017-07-17T01:52:59.050Z,0
2017-07-17T01:53:59.359Z,0
2017-07-17T01:54:59.345Z,0
2017-07-17T01:55:59.312Z,0
2017-07-17T01:56:59.307Z,0
2017-07-17T01:57:59.014Z,0
2017-07-17T01:58:59.018Z,0
2017-07-17T01:59:59.330Z,0
2017-07-17T02:00:58.991Z,0
2017-07-17T02:01:59.636Z,0
2017-07-17T02:02:59.317Z,0
2017-07-17T02:03:59.311Z,0
2017-07-17T02:04:59.309Z,0
2017-07-17T02:05:59.319Z,0
2017-07-17T02:06:59.614Z,0
2017-07-17T02:07:59.312Z,0
2017-07-17T02:08:59.045Z,0
2017-07-17T02:09:59.312Z,0
2017-07-17T02:10:58.653Z,0
2017-07-17T02:11:59.531Z,0
2017-07-17T02:12:58.651Z,0
2017-07-17T02:13:58.975Z,0
2017-07-17T02:14:58.964Z,0
2017-07-17T02:15:58.663Z,0
2017-07-17T02:16:59.502Z,0
2017-07-17T02:17:59.292Z,0
2017-07-17T02:18:59.252Z,0
2017-07-17T02:19:59.278Z,0
2017-07-17T02:20:58.920Z,0
2017-07-17T02:21:59.590Z,0
2017-07-17T02:22:58.622Z,0
2017-07-17T02:23:59.256Z,0
2017-07-17T02:24:59.225Z,0
2017-07-17T02:25:59.224Z,0
2017-07-17T02:26:59.509Z,0
2017-07-17T02:27:59.255Z,0
2017-07-17T02:28:58.623Z,0
2017-07-17T02:29:59.230Z,0
2017-07-17T02:30:58.906Z,0
2017-07-17T02:31:59.205Z,0
2017-07-17T02:32:59.222Z,0
2017-07-17T02:33:59.233Z,0
2017-07-17T02:34:58.572Z,0
2017-07-17T02:35:59.222Z,0
2017-07-17T02:36:59.559Z,0
2017-07-17T02:37:59.228Z,0
2017-07-17T02:38:59.251Z,0
2017-07-17T02:39:58.884Z,0
2017-07-17T02:40:59.204Z,0
2017-07-17T02:41:59.436Z,0
2017-07-17T02:42:58.573Z,0
2017-07-17T02:43:58.571Z,0
2017-07-17T02:44:59.207Z,0
2017-07-17T02:45:58.559Z,0
2017-07-17T02:46:58.789Z,0
2017-07-17T02:47:59.161Z,0
2017-07-17T02:48:58.568Z,0
2017-07-17T02:49:58.850Z,0
2017-07-17T02:50:59.191Z,0
2017-07-17T02:51:59.473Z,0
2017-07-17T02:52:58.859Z,0
2017-07-17T02:53:58.533Z,0
2017-07-17T02:54:59.166Z,0
2017-07-17T02:55:59.156Z,0
2017-07-17T02:56:59.427Z,0
2017-07-17T02:57:59.148Z,0
2017-07-17T02:58:59.147Z,0
2017-07-17T02:59:58.525Z,0
2017-07-17T03:00:58.527Z,0
2017-07-17T03:01:59.073Z,0
2017-07-17T03:02:58.813Z,0
2017-07-17T03:03:59.133Z,0
2017-07-17T03:04:58.838Z,0
2017-07-17T03:05:58.817Z,0
2017-07-17T03:06:59.441Z,0
2017-07-17T03:07:58.797Z,0
2017-07-17T03:08:58.815Z,0
2017-07-17T03:09:58.481Z,0
2017-07-17T03:10:58.786Z,0
2017-07-17T03:11:58.719Z,0
2017-07-17T03:12:59.121Z,0
2017-07-17T03:13:58.806Z,0
2017-07-17T03:14:59.113Z,0
2017-07-17T03:15:59.095Z,0
2017-07-17T03:16:59.441Z,0
2017-07-17T03:17:58.776Z,0
2017-07-17T03:18:59.087Z,0
2017-07-17T03:19:58.791Z,0
2017-07-17T03:20:59.066Z,0
2017-07-17T03:21:59.349Z,0
2017-07-17T03:22:58.762Z,0
2017-07-17T03:23:58.751Z,0
2017-07-17T03:24:59.088Z,0
2017-07-17T03:25:58.745Z,0
2017-07-17T03:26:59.322Z,0
2017-07-17T03:27:59.062Z,5
2017-07-17T03:28:58.753Z,5
2017-07-17T03:29:58.756Z,5
2017-07-17T03:30:58.729Z,5
2017-07-17T03:31:58.986Z,10
2017-07-17T03:32:58.421Z,10
2017-07-17T03:33:59.055Z,10
2017-07-17T03:34:58.423Z,5
2017-07-17T03:35:59.047Z,10
2017-07-17T03:36:59.024Z,20
2017-07-17T03:37:59.043Z,25
2017-07-17T03:38:59.027Z,30
2017-07-17T03:39:59.042Z,35
2017-07-17T03:40:58.684Z,35
2017-07-17T03:41:58.971Z,35
2017-07-17T03:42:59.014Z,40
2017-07-17T03:43:58.710Z,40
2017-07-17T03:44:58.685Z,45
2017-07-17T03:45:59.009Z,45
2017-07-17T03:46:59.317Z,45
2017-07-17T03:47:58.708Z,50
2017-07-17T03:48:58.998Z,55
2017-07-17T03:49:58.066Z,55
2017-07-17T03:50:58.381Z,55
2017-07-17T03:51:59.053Z,60
2017-07-17T03:52:58.679Z,60
2017-07-17T03:53:59.003Z,60
2017-07-17T03:54:58.335Z,60
2017-07-17T03:55:58.690Z,65
2017-07-17T03:56:58.580Z,65
2017-07-17T03:57:58.681Z,65
2017-07-17T03:58:58.659Z,65
2017-07-17T03:59:58.983Z,60
2017-07-17T04:00:58.636Z,75
2017-07-17T04:01:58.625Z,80
2017-07-17T04:02:58.649Z,85
2017-07-17T04:03:58.658Z,90
2017-07-17T04:04:58.333Z,85
2017-07-17T04:05:58.642Z,90
2017-07-17T04:06:58.614Z,105
2017-07-17T04:07:58.626Z,110
2017-07-17T04:08:58.974Z,110
2017-07-17T04:09:58.635Z,110
2017-07-17T04:10:58.956Z,110
2017-07-17T04:11:58.862Z,110
2017-07-17T04:12:58.632Z,115
2017-07-17T04:13:58.936Z,120
2017-07-17T04:14:58.938Z,115
2017-07-17T04:15:58.638Z,120
2017-07-17T04:16:58.848Z,130
2017-07-17T04:17:58.928Z,135
2017-07-17T04:18:58.906Z,145
2017-07-17T04:19:58.928Z,165
2017-07-17T04:20:58.605Z,170
2017-07-17T04:21:59.211Z,175
2017-07-17T04:22:57.637Z,175
2017-07-17T04:23:58.899Z,180
2017-07-17T04:24:58.912Z,190
2017-07-17T04:25:58.566Z,240
2017-07-17T04:26:58.896Z,380
2017-07-17T04:27:58.572Z,385
2017-07-17T04:28:58.911Z,395
2017-07-17T04:29:58.879Z,270
2017-07-17T04:30:58.885Z,415
2017-07-17T04:31:59.175Z,410
2017-07-17T04:32:58.577Z,420
2017-07-17T04:33:58.883Z,425
2017-07-17T04:34:58.884Z,445
2017-07-17T04:35:58.877Z,440
2017-07-17T04:36:58.788Z,440
2017-07-17T04:37:58.560Z,455
2017-07-17T04:38:58.871Z,465
2017-07-17T04:39:58.547Z,475
2017-07-17T04:40:58.890Z,480
2017-07-17T04:41:58.798Z,480
2017-07-17T04:42:58.569Z,485
2017-07-17T04:43:58.921Z,500
2017-07-17T04:44:58.566Z,480
2017-07-17T04:45:58.549Z,520
2017-07-17T04:46:58.820Z,525
2017-07-17T04:47:58.239Z,390
2017-07-17T04:48:58.574Z,310
2017-07-17T04:49:57.939Z,555
2017-07-17T04:50:58.902Z,405
2017-07-17T04:51:59.131Z,405
2017-07-17T04:52:58.286Z,290
2017-07-17T04:53:58.254Z,280
2017-07-17T04:54:58.585Z,275
2017-07-17T04:55:58.892Z,280
2017-07-17T04:56:58.964Z,280
2017-07-17T04:57:58.273Z,300
2017-07-17T04:58:58.941Z,320
2017-07-17T04:59:58.943Z,575
2017-07-17T05:00:58.936Z,365
2017-07-17T05:01:59.210Z,595
2017-07-17T05:02:58.620Z,640
2017-07-17T05:03:58.944Z,680
2017-07-17T05:04:58.323Z,700
2017-07-17T05:05:58.632Z,720
2017-07-17T05:06:58.574Z,740
2017-07-17T05:07:58.003Z,735
2017-07-17T05:08:58.324Z,735
2017-07-17T05:09:58.959Z,740
2017-07-17T05:10:58.963Z,765
2017-07-17T05:11:59.210Z,765
2017-07-17T05:12:59.029Z,775
2017-07-17T05:13:58.987Z,780
2017-07-17T05:14:58.705Z,785
2017-07-17T05:15:58.390Z,785
2017-07-17T05:16:59.321Z,795
2017-07-17T05:17:58.681Z,790
2017-07-17T05:18:59.014Z,800
2017-07-17T05:19:58.378Z,820
2017-07-17T05:20:58.416Z,825
2017-07-17T05:21:59.293Z,850
2017-07-17T05:22:58.410Z,840
2017-07-17T05:23:58.729Z,865
2017-07-17T05:24:58.798Z,855
2017-07-17T05:25:58.755Z,860
2017-07-17T05:26:59.389Z,755
2017-07-17T05:27:59.116Z,885
2017-07-17T05:28:58.766Z,880
2017-07-17T05:29:58.804Z,905
2017-07-17T05:30:58.479Z,930
2017-07-17T05:31:59.057Z,855
2017-07-17T05:32:59.148Z,500
2017-07-17T05:33:58.812Z,475
2017-07-17T05:34:58.208Z,1060
2017-07-17T05:35:59.150Z,965
2017-07-17T05:36:59.126Z,855
2017-07-17T05:37:58.865Z,1070
2017-07-17T05:38:58.886Z,1045
2017-07-17T05:39:58.888Z,1135
2017-07-17T05:40:58.555Z,500
2017-07-17T05:41:59.475Z,545
2017-07-17T05:42:58.918Z,400
2017-07-17T05:43:58.941Z,400
2017-07-17T05:44:58.928Z,1220
2017-07-17T05:45:58.962Z,1270
2017-07-17T05:46:59.602Z,680
2017-07-17T05:47:58.968Z,525
2017-07-17T05:48:58.974Z,825
2017-07-17T05:49:58.687Z,1030
2017-07-17T05:50:58.993Z,615
2017-07-17T05:51:59.593Z,1345
2017-07-17T05:52:58.676Z,545
2017-07-17T05:53:59.016Z,680
2017-07-17T05:54:59.353Z,730
2017-07-17T05:55:59.091Z,685
2017-07-17T05:56:59.672Z,1405
2017-07-17T05:57:58.747Z,1290
2017-07-17T05:58:59.403Z,740
2017-07-17T05:59:59.121Z,1455
2017-07-17T06:00:59.085Z,1045
2017-07-17T06:01:59.681Z,525
2017-07-17T06:02:59.113Z,495
2017-07-17T06:03:59.133Z,395
2017-07-17T06:04:59.126Z,335
2017-07-17T06:05:59.161Z,395
2017-07-17T06:06:59.789Z,525
2017-07-17T06:07:59.507Z,820
2017-07-17T06:08:59.189Z,1650
2017-07-17T06:09:59.184Z,1125
2017-07-17T06:10:59.507Z,1075
2017-07-17T06:11:59.147Z,1495
2017-07-17T06:12:59.552Z,1470
2017-07-17T06:13:59.232Z,420
2017-07-17T06:14:59.229Z,385
2017-07-17T06:15:59.222Z,425
2017-07-17T06:16:59.194Z,1460
2017-07-17T06:17:59.266Z,375
2017-07-17T06:18:58.969Z,1520
2017-07-17T06:19:59.282Z,1485
2017-07-17T06:20:59.313Z,1515
2017-07-17T06:21:59.906Z,1290
2017-07-17T06:22:59.321Z,1560
2017-07-17T06:23:59.330Z,1600
2017-07-17T06:24:59.639Z,1480
2017-07-17T06:25:59.344Z,1615
2017-07-17T06:26:59.912Z,1580
2017-07-17T06:27:59.684Z,1540
2017-07-17T06:28:59.388Z,1615
2017-07-17T06:29:59.387Z,1675
2017-07-17T06:30:59.404Z,1690
2017-07-17T06:31:59.642Z,1650
2017-07-17T06:32:59.445Z,1710
2017-07-17T06:33:58.482Z,1840
2017-07-17T06:34:59.449Z,1275
2017-07-17T06:35:59.766Z,970
2017-07-17T06:36:59.396Z,845
2017-07-17T06:37:59.494Z,900
2017-07-17T06:38:59.536Z,595
2017-07-17T06:39:59.518Z,650
2017-07-17T06:40:59.499Z,1940
2017-07-17T06:42:00.163Z,1915
2017-07-17T06:42:59.548Z,1250
2017-07-17T06:43:59.887Z,590
2017-07-17T06:44:59.280Z,880
2017-07-17T06:45:59.896Z,415
2017-07-17T06:46:59.978Z,465
2017-07-17T06:47:59.627Z,1770
2017-07-17T06:48:59.616Z,1660
2017-07-17T06:49:59.966Z,1630
2017-07-17T06:50:59.639Z,2050
2017-07-17T06:51:59.913Z,2125
2017-07-17T06:52:59.997Z,2245
2017-07-17T06:53:59.391Z,2125
2017-07-17T06:54:59.704Z,1875
2017-07-17T06:55:59.419Z,695
2017-07-17T06:56:59.968Z,590
2017-07-17T06:58:00.065Z,450
2017-07-17T06:59:00.077Z,430
2017-07-17T06:59:59.498Z,435
2017-07-17T07:00:59.807Z,475
2017-07-17T07:02:00.479Z,515
2017-07-17T07:02:59.479Z,495
2017-07-17T07:03:59.510Z,460
2017-07-17T07:05:00.193Z,2060
2017-07-17T07:05:59.823Z,1745
2017-07-17T07:07:00.440Z,2160
2017-07-17T07:08:00.169Z,2240
2017-07-17T07:08:59.902Z,2290
2017-07-17T07:09:59.878Z,2380
2017-07-17T07:10:59.585Z,2070
2017-07-17T07:12:00.215Z,2455
2017-07-17T07:12:59.950Z,1505
2017-07-17T07:13:59.943Z,1040
2017-07-17T07:14:59.958Z,1595
2017-07-17T07:15:59.663Z,1035
2017-07-17T07:17:00.567Z,575
2017-07-17T07:18:00.310Z,455
2017-07-17T07:18:59.377Z,515
2017-07-17T07:20:00.370Z,530
2017-07-17T07:21:00.047Z,1925
2017-07-17T07:22:00.395Z,2240
2017-07-17T07:22:59.442Z,2365
2017-07-17T07:24:00.058Z,2710
2017-07-17T07:25:00.410Z,1890
2017-07-17T07:25:59.763Z,1960
2017-07-17T07:27:00.115Z,2090
2017-07-17T07:28:00.723Z,2475
2017-07-17T07:28:59.837Z,2690
2017-07-17T07:30:00.173Z,2270
2017-07-17T07:30:59.848Z,765
2017-07-17T07:32:00.164Z,695
2017-07-17T07:33:00.833Z,770
2017-07-17T07:34:00.199Z,895
2017-07-17T07:35:00.228Z,745
2017-07-17T07:36:00.250Z,605
2017-07-17T07:37:00.238Z,570
2017-07-17T07:38:00.893Z,585
2017-07-17T07:39:00.608Z,1810
2017-07-17T07:40:00.598Z,750
2017-07-17T07:41:00.622Z,755
2017-07-17T07:41:59.983Z,580
2017-07-17T07:43:00.902Z,2490
2017-07-17T07:44:00.320Z,2595
2017-07-17T07:45:00.682Z,2725
2017-07-17T07:46:00.682Z,1860
2017-07-17T07:47:00.691Z,905
2017-07-17T07:48:00.937Z,1300
2017-07-17T07:49:00.076Z,2160
2017-07-17T07:50:00.743Z,1295
2017-07-17T07:50:59.462Z,1240
2017-07-17T07:52:00.435Z,1660
2017-07-17T07:53:00.466Z,830
2017-07-17T07:54:00.139Z,570
2017-07-17T07:55:00.453Z,490
2017-07-17T07:56:00.168Z,465
2017-07-17T07:57:00.487Z,490
2017-07-17T07:58:00.188Z,715
2017-07-17T07:59:00.198Z,2450
2017-07-17T08:00:00.842Z,2085
2017-07-17T08:01:00.508Z,2525
2017-07-17T08:02:00.864Z,2080
2017-07-17T08:03:01.121Z,1145
2017-07-17T08:04:00.582Z,1850
2017-07-17T08:05:00.888Z,1095
2017-07-17T08:06:00.924Z,935
2017-07-17T08:07:00.605Z,700
2017-07-17T08:08:01.304Z,845
2017-07-17T08:09:00.631Z,2610
2017-07-17T08:10:00.980Z,745
2017-07-17T08:11:00.337Z,1225
2017-07-17T08:12:00.686Z,3670
2017-07-17T08:13:00.590Z,2585
2017-07-17T08:14:00.388Z,2585
2017-07-17T08:15:00.712Z,1465
2017-07-17T08:16:00.731Z,1560
2017-07-17T08:17:00.732Z,1165
2017-07-17T08:18:01.303Z,1640
2017-07-17T08:19:01.067Z,3145
2017-07-17T08:20:00.768Z,1475
2017-07-17T08:21:01.093Z,2130
2017-07-17T08:22:00.803Z,2290
2017-07-17T08:23:01.096Z,2605
2017-07-17T08:24:00.193Z,3575
2017-07-17T08:25:00.811Z,3110
2017-07-17T08:26:01.178Z,2515
2017-07-17T08:27:00.865Z,1965
2017-07-17T08:28:01.443Z,2790
2017-07-17T08:29:01.178Z,910
2017-07-17T08:30:01.216Z,635
2017-07-17T08:31:01.232Z,665
2017-07-17T08:32:00.601Z,1840
2017-07-17T08:33:01.207Z,2565
2017-07-17T08:34:01.277Z,2180
2017-07-17T08:35:00.968Z,2470
2017-07-17T08:36:01.306Z,2345
2017-07-17T08:37:00.993Z,2320
2017-07-17T08:38:01.310Z,2295
2017-07-17T08:39:01.030Z,2300
2017-07-17T08:40:01.369Z,2275
2017-07-17T08:41:01.034Z,2230
2017-07-17T08:42:01.069Z,2195
2017-07-17T08:43:01.374Z,2320
2017-07-17T08:44:00.473Z,2295
2017-07-17T08:45:01.150Z,745
2017-07-17T08:46:01.472Z,430
2017-07-17T08:47:01.152Z,420
2017-07-17T08:48:01.470Z,1610
2017-07-17T08:49:01.164Z,2355
2017-07-17T08:50:01.173Z,2375
2017-07-17T08:51:00.880Z,2460
2017-07-17T08:52:01.224Z,2505
2017-07-17T08:53:01.840Z,2595
2017-07-17T08:54:01.553Z,2600
2017-07-17T08:55:00.930Z,1845
2017-07-17T08:56:01.591Z,580
2017-07-17T08:57:00.627Z,515
2017-07-17T08:58:00.582Z,540
2017-07-17T08:59:00.641Z,850
2017-07-17T09:00:01.321Z,550
2017-07-17T09:01:01.314Z,615
2017-07-17T09:02:01.353Z,680
2017-07-17T09:03:01.699Z,690
2017-07-17T09:04:01.039Z,670
2017-07-17T09:05:01.679Z,625
2017-07-17T09:06:01.376Z,605
2017-07-17T09:07:01.696Z,565
2017-07-17T09:08:02.079Z,630
2017-07-17T09:09:00.783Z,575
2017-07-17T09:10:01.735Z,550
2017-07-17T09:11:01.131Z,530
2017-07-17T09:12:01.121Z,545
2017-07-17T09:13:01.721Z,595
2017-07-17T09:14:01.465Z,650
2017-07-17T09:15:01.807Z,685
2017-07-17T09:16:01.474Z,615
2017-07-17T09:17:01.875Z,510
2017-07-17T09:18:00.858Z,430
2017-07-17T09:19:02.133Z,400
2017-07-17T09:20:01.520Z,400
2017-07-17T09:21:01.853Z,400
2017-07-17T09:22:01.207Z,410
2017-07-17T09:23:01.526Z,415
2017-07-17T09:24:01.578Z,435
2017-07-17T09:25:01.566Z,455
2017-07-17T09:26:01.853Z,455
2017-07-17T09:27:01.454Z,410
2017-07-17T09:28:01.237Z,380
2017-07-17T09:29:02.205Z,360
2017-07-17T09:30:01.574Z,390
2017-07-17T09:31:01.607Z,495
2017-07-17T09:32:01.899Z,605
2017-07-17T09:33:01.927Z,645
2017-07-17T09:34:01.852Z,595
2017-07-17T09:35:01.637Z,570
2017-07-17T09:36:01.607Z,585
2017-07-17T09:37:01.953Z,550
2017-07-17T09:38:01.305Z,495
2017-07-17T09:39:01.893Z,445
2017-07-17T09:40:01.944Z,400
2017-07-17T09:41:01.627Z,380
2017-07-17T09:42:01.332Z,375
2017-07-17T09:43:01.983Z,410
2017-07-17T09:44:01.921Z,465
2017-07-17T09:45:01.970Z,500
2017-07-17T09:46:01.675Z,485
2017-07-17T09:47:01.990Z,485
2017-07-17T09:48:01.356Z,530
2017-07-17T09:49:01.937Z,560
2017-07-17T09:50:01.999Z,525
2017-07-17T09:51:01.388Z,440
2017-07-17T09:52:02.005Z,375
2017-07-17T09:53:01.708Z,330
2017-07-17T09:54:02.379Z,320
2017-07-17T09:55:01.409Z,325
2017-07-17T09:56:01.067Z,330
2017-07-17T09:57:01.681Z,310
2017-07-17T09:58:02.038Z,300
2017-07-17T09:59:02.283Z,300
2017-07-17T10:00:01.428Z,300
2017-07-17T10:01:01.402Z,300
2017-07-17T10:02:02.042Z,305
2017-07-17T10:03:01.395Z,300
2017-07-17T10:04:02.310Z,300
2017-07-17T10:05:02.040Z,305
2017-07-17T10:06:02.079Z,310
2017-07-17T10:07:01.420Z,315
2017-07-17T10:08:01.762Z,305
2017-07-17T10:09:02.359Z,295
2017-07-17T10:10:01.748Z,300
2017-07-17T10:11:02.077Z,285
2017-07-17T10:12:02.090Z,285
2017-07-17T10:13:02.066Z,305
2017-07-17T10:14:02.347Z,320
2017-07-17T10:15:01.136Z,335
2017-07-17T10:16:01.469Z,375
2017-07-17T10:17:01.764Z,425
2017-07-17T10:18:02.110Z,440
2017-07-17T10:19:02.447Z,440
2017-07-17T10:20:02.109Z,405
2017-07-17T10:21:01.794Z,365
2017-07-17T10:22:02.129Z,360
2017-07-17T10:23:01.797Z,365
2017-07-17T10:24:02.042Z,345
2017-07-17T10:25:01.768Z,325
2017-07-17T10:26:01.797Z,300
2017-07-17T10:27:02.118Z,295
2017-07-17T10:28:02.138Z,300
2017-07-17T10:29:02.399Z,340
2017-07-17T10:30:01.789Z,375
2017-07-17T10:31:02.134Z,365
2017-07-17T10:32:01.812Z,335
2017-07-17T10:33:01.514Z,310
2017-07-17T10:34:02.383Z,300
2017-07-17T10:35:02.158Z,290
2017-07-17T10:36:02.146Z,290
2017-07-17T10:37:01.526Z,285
2017-07-17T10:38:01.822Z,285
2017-07-17T10:39:01.773Z,295
2017-07-17T10:40:01.840Z,300
2017-07-17T10:41:01.498Z,300
2017-07-17T10:42:01.849Z,320
2017-07-17T10:43:01.843Z,355
2017-07-17T10:44:02.413Z,355
2017-07-17T10:45:02.183Z,320
2017-07-17T10:46:01.834Z,295
2017-07-17T10:47:02.177Z,285
2017-07-17T10:48:01.209Z,300
2017-07-17T10:49:02.138Z,325
2017-07-17T10:50:01.858Z,335
2017-07-17T10:51:02.191Z,335
2017-07-17T10:52:02.163Z,340
2017-07-17T10:53:02.189Z,365
2017-07-17T10:54:01.855Z,390
2017-07-17T10:55:01.868Z,420
2017-07-17T10:56:02.174Z,505
2017-07-17T10:57:01.888Z,565
2017-07-17T10:58:01.882Z,565
2017-07-17T10:59:02.553Z,560
2017-07-17T11:00:01.875Z,605
2017-07-17T11:01:02.200Z,635
2017-07-17T11:02:01.575Z,615
2017-07-17T11:03:02.197Z,570
2017-07-17T11:04:02.445Z,505
2017-07-17T11:05:01.912Z,435
2017-07-17T11:06:01.894Z,375
2017-07-17T11:07:02.222Z,320
2017-07-17T11:08:02.208Z,285
2017-07-17T11:09:02.158Z,285
2017-07-17T11:10:01.905Z,290
2017-07-17T11:11:01.589Z,285
2017-07-17T11:12:02.220Z,270
2017-07-17T11:13:02.256Z,280
2017-07-17T11:14:02.589Z,285
2017-07-17T11:15:01.923Z,300
2017-07-17T11:16:01.605Z,320
2017-07-17T11:17:01.599Z,310
2017-07-17T11:18:02.254Z,300
2017-07-17T11:19:02.546Z,320
2017-07-17T11:20:01.621Z,335
2017-07-17T11:21:02.235Z,385
2017-07-17T11:22:01.310Z,460
2017-07-17T11:23:01.649Z,520
2017-07-17T11:24:02.516Z,550
2017-07-17T11:25:01.628Z,560
2017-07-17T11:26:02.283Z,570
2017-07-17T11:27:01.960Z,560
2017-07-17T11:28:02.268Z,555
2017-07-17T11:29:02.235Z,550
2017-07-17T11:30:01.954Z,535
2017-07-17T11:31:01.651Z,550
2017-07-17T11:32:01.644Z,610
2017-07-17T11:33:02.275Z,635
2017-07-17T11:34:02.270Z,600
2017-07-17T11:35:01.985Z,515
2017-07-17T11:36:01.670Z,460
2017-07-17T11:37:01.653Z,475
2017-07-17T11:38:02.320Z,545
2017-07-17T11:39:02.225Z,615
2017-07-17T11:40:01.995Z,725
2017-07-17T11:41:01.350Z,785
2017-07-17T11:42:02.332Z,800
2017-07-17T11:43:02.315Z,810
2017-07-17T11:44:02.616Z,805
2017-07-17T11:45:02.023Z,780
2017-07-17T11:56:13.931Z,720
2017-07-17T11:57:14.512Z,725
2017-07-17T11:59:14.505Z,645
2017-07-17T12:00:14.512Z,590
2017-07-17T12:01:14.190Z,560
2017-07-17T12:02:14.538Z,505
2017-07-17T12:03:14.527Z,465
2017-07-17T12:04:14.547Z,430
2017-07-17T12:06:14.255Z,480
2017-07-17T12:07:14.248Z,465
2017-07-17T12:08:14.252Z,450
2017-07-17T12:09:14.240Z,465
2017-07-17T12:10:14.879Z,505
2017-07-17T12:11:14.260Z,545
2017-07-17T12:12:14.599Z,570
2017-07-17T12:13:13.961Z,590
2017-07-17T12:14:13.951Z,655
2017-07-17T12:15:14.583Z,685
2017-07-17T12:16:14.304Z,710
2017-07-17T12:17:13.991Z,735
2017-07-17T12:18:14.317Z,740
2017-07-17T12:19:14.627Z,685
2017-07-17T12:20:14.636Z,640
2017-07-17T12:21:14.335Z,615
2017-07-17T12:22:14.633Z,635
2017-07-17T12:23:14.660Z,675
2017-07-17T12:24:14.660Z,705
2017-07-17T12:25:14.282Z,725
2017-07-17T12:26:14.694Z,765
2017-07-17T12:27:14.040Z,790
2017-07-17T12:28:14.367Z,815
2017-07-17T12:29:14.683Z,820
2017-07-17T12:30:14.927Z,800
2017-07-17T12:31:14.066Z,805
2017-07-17T12:32:14.392Z,795
2017-07-17T12:33:14.721Z,810
2017-07-17T12:34:14.720Z,800
2017-07-17T12:35:14.988Z,770
2017-07-17T12:36:14.742Z,765
2017-07-17T12:37:14.735Z,780
2017-07-17T12:38:14.750Z,795
2017-07-17T12:39:14.789Z,815
2017-07-17T12:40:15.070Z,815
2017-07-17T12:41:14.761Z,780
2017-07-17T12:42:14.784Z,745
2017-07-17T12:43:14.449Z,705
2017-07-17T12:44:14.482Z,725
2017-07-17T12:45:14.738Z,760
2017-07-17T12:46:14.479Z,770
2017-07-17T12:47:14.810Z,760
2017-07-17T12:48:14.829Z,725
2017-07-17T12:49:14.492Z,665
2017-07-17T12:50:15.212Z,595
2017-07-17T12:51:14.188Z,545
2017-07-17T12:52:14.845Z,535
2017-07-17T12:53:14.541Z,545
2017-07-17T12:54:14.203Z,545
2017-07-17T12:55:14.771Z,540
2017-07-17T12:56:14.871Z,530
2017-07-17T12:57:14.883Z,530
2017-07-17T12:58:14.567Z,525
2017-07-17T12:59:14.888Z,520
2017-07-17T13:00:15.140Z,485
2017-07-17T13:01:14.580Z,475
2017-07-17T13:02:14.926Z,430
2017-07-17T13:03:14.894Z,415
2017-07-17T13:04:14.929Z,440
2017-07-17T13:05:15.204Z,465
2017-07-17T13:06:14.619Z,480
2017-07-17T13:07:14.597Z,470
2017-07-17T13:08:14.623Z,515
2017-07-17T13:09:13.987Z,555
2017-07-17T13:10:14.894Z,580
2017-07-17T13:11:14.974Z,605
2017-07-17T13:12:14.016Z,620
2017-07-17T13:13:14.631Z,615
2017-07-17T13:14:14.961Z,630
2017-07-17T13:15:15.264Z,620
2017-07-17T13:16:14.670Z,605
2017-07-17T13:17:14.982Z,615
2017-07-17T13:18:14.378Z,625
2017-07-17T13:19:14.687Z,620
2017-07-17T13:20:14.363Z,605
2017-07-17T13:21:14.353Z,570
2017-07-17T13:22:14.708Z,525
2017-07-17T13:23:15.017Z,500
2017-07-17T13:24:14.396Z,490
2017-07-17T13:25:15.324Z,485
2017-07-17T13:26:14.429Z,460
2017-07-17T13:27:15.067Z,415
2017-07-17T13:28:15.041Z,385
2017-07-17T13:29:14.423Z,365
2017-07-17T13:30:15.033Z,360
2017-07-17T13:31:14.750Z,380
2017-07-17T13:32:15.075Z,400
2017-07-17T13:33:15.057Z,380
2017-07-17T13:34:14.773Z,360
2017-07-17T13:35:15.062Z,340
2017-07-17T13:36:14.793Z,330
2017-07-17T13:37:14.767Z,350
2017-07-17T13:38:14.495Z,400
2017-07-17T13:39:15.093Z,430
2017-07-17T13:40:15.058Z,415
2017-07-17T13:41:14.785Z,380
2017-07-17T13:42:14.814Z,350
2017-07-17T13:43:14.803Z,320
2017-07-17T13:44:14.531Z,330
2017-07-17T13:45:15.398Z,335
2017-07-17T13:46:14.881Z,365
2017-07-17T13:47:14.508Z,375
2017-07-17T13:48:15.174Z,360
2017-07-17T13:49:14.839Z,330
2017-07-17T13:50:15.557Z,315
2017-07-17T13:51:15.145Z,290
2017-07-17T13:52:15.199Z,275
2017-07-17T13:53:14.853Z,270
2017-07-17T13:54:15.196Z,270
2017-07-17T13:55:15.462Z,270
2017-07-17T13:56:14.889Z,270
2017-07-17T13:57:14.574Z,265
2017-07-17T13:58:14.604Z,260
2017-07-17T13:59:15.212Z,270
2017-07-17T14:00:15.158Z,285
2017-07-17T14:01:14.877Z,290
2017-07-17T14:02:14.599Z,295
2017-07-17T14:03:14.601Z,295
2017-07-17T14:04:14.917Z,285
2017-07-17T14:05:15.477Z,290
2017-07-17T14:06:15.232Z,300
2017-07-17T14:07:15.227Z,315
2017-07-17T14:08:15.235Z,325
2017-07-17T14:09:14.937Z,285
2017-07-17T14:10:15.616Z,275